sensor_id;sensor_type;location;lat;lon;timestamp;temperature;humidity
11426;DHT22;5769;47.998;7.788;2023-04-16T00:00:07;20.00;90.90
11426;DHT22;5769;47.998;7.788;2023-04-16T00:02:35;20.10;91.00
11426;DHT22;5769;47.998;7.788;2023-04-16T00:05:02;20.00;91.00
11426;DHT22;5769;47.998;7.788;2023-04-16T00:07:28;20.00;90.90
11426;DHT22;5769;47.998;7.788;2023-04-16T00:09:55;20.10;90.80
11426;DHT22;5769;47.998;7.788;2023-04-16T00:12:22;20.00;90.80
11426;DHT22;5769;47.998;7.788;2023-04-16T00:14:49;20.00;90.80
11426;DHT22;5769;47.998;7.788;2023-04-16T00:17:16;20.00;90.80
11426;DHT22;5769;47.998;7.788;2023-04-16T00:19:44;20.00;90.80
11426;DHT22;5769;47.998;7.788;2023-04-16T00:22:11;19.90;90.80
11426;DHT22;5769;47.998;7.788;2023-04-16T00:24:38;20.00;90.80
11426;DHT22;5769;47.998;7.788;2023-04-16T00:27:05;20.00;90.80
11426;DHT22;5769;47.998;7.788;2023-04-16T00:29:32;20.10;90.90
11426;DHT22;5769;47.998;7.788;2023-04-16T00:32:00;20.00;90.80
11426;DHT22;5769;47.998;7.788;2023-04-16T00:34:26;19.90;90.70
11426;DHT22;5769;47.998;7.788;2023-04-16T00:36:55;20.00;91.00
11426;DHT22;5769;47.998;7.788;2023-04-16T00:39:21;19.90;90.60
11426;DHT22;5769;47.998;7.788;2023-04-16T00:41:49;20.00;90.70
11426;DHT22;5769;47.998;7.788;2023-04-16T00:44:15;19.90;90.80
11426;DHT22;5769;47.998;7.788;2023-04-16T00:46:42;20.00;90.80
11426;DHT22;5769;47.998;7.788;2023-04-16T00:49:09;19.90;90.90
11426;DHT22;5769;47.998;7.788;2023-04-16T00:51:36;19.80;90.80
11426;DHT22;5769;47.998;7.788;2023-04-16T00:54:05;19.90;90.90
11426;DHT22;5769;47.998;7.788;2023-04-16T00:56:33;19.80;90.80
11426;DHT22;5769;47.998;7.788;2023-04-16T00:59:01;19.90;90.80
11426;DHT22;5769;47.998;7.788;2023-04-16T01:01:28;19.80;90.80
11426;DHT22;5769;47.998;7.788;2023-04-16T01:03:54;19.90;90.80
11426;DHT22;5769;47.998;7.788;2023-04-16T01:06:21;19.90;90.90
11426;DHT22;5769;47.998;7.788;2023-04-16T01:08:48;19.80;90.80
11426;DHT22;5769;47.998;7.788;2023-04-16T01:11:16;20.00;90.80
11426;DHT22;5769;47.998;7.788;2023-04-16T01:13:43;19.90;90.90
11426;DHT22;5769;47.998;7.788;2023-04-16T01:16:11;19.80;90.80
11426;DHT22;5769;47.998;7.788;2023-04-16T01:18:38;19.90;90.80
11426;DHT22;5769;47.998;7.788;2023-04-16T01:21:06;19.80;90.80
11426;DHT22;5769;47.998;7.788;2023-04-16T01:23:34;19.80;90.80
11426;DHT22;5769;47.998;7.788;2023-04-16T01:26:01;19.70;90.80
11426;DHT22;5769;47.998;7.788;2023-04-16T01:28:28;19.80;90.60
11426;DHT22;5769;47.998;7.788;2023-04-16T01:30:54;19.90;90.80
11426;DHT22;5769;47.998;7.788;2023-04-16T01:33:23;19.70;90.70
11426;DHT22;5769;47.998;7.788;2023-04-16T01:35:49;19.80;90.90
11426;DHT22;5769;47.998;7.788;2023-04-16T01:38:18;19.80;90.80
11426;DHT22;5769;47.998;7.788;2023-04-16T01:40:44;19.70;90.70
11426;DHT22;5769;47.998;7.788;2023-04-16T01:43:11;19.90;90.80
11426;DHT22;5769;47.998;7.788;2023-04-16T01:45:38;19.80;90.80
11426;DHT22;5769;47.998;7.788;2023-04-16T01:48:06;19.70;90.70
11426;DHT22;5769;47.998;7.788;2023-04-16T01:50:33;19.70;90.80
11426;DHT22;5769;47.998;7.788;2023-04-16T01:53:00;19.70;90.80
11426;DHT22;5769;47.998;7.788;2023-04-16T01:55:31;19.70;90.80
11426;DHT22;5769;47.998;7.788;2023-04-16T01:58:01;19.80;90.80
11426;DHT22;5769;47.998;7.788;2023-04-16T02:00:27;19.80;91.00
11426;DHT22;5769;47.998;7.788;2023-04-16T02:02:54;19.80;91.10
11426;DHT22;5769;47.998;7.788;2023-04-16T02:05:22;19.70;91.10
11426;DHT22;5769;47.998;7.788;2023-04-16T02:07:50;19.70;91.20
11426;DHT22;5769;47.998;7.788;2023-04-16T02:10:17;19.70;91.10
11426;DHT22;5769;47.998;7.788;2023-04-16T02:12:45;19.70;91.20
11426;DHT22;5769;47.998;7.788;2023-04-16T02:15:12;19.80;91.30
11426;DHT22;5769;47.998;7.788;2023-04-16T02:17:40;19.80;91.40
11426;DHT22;5769;47.998;7.788;2023-04-16T02:20:08;19.80;91.40
11426;DHT22;5769;47.998;7.788;2023-04-16T02:22:35;19.80;91.30
11426;DHT22;5769;47.998;7.788;2023-04-16T02:25:02;19.80;91.30
11426;DHT22;5769;47.998;7.788;2023-04-16T02:27:29;19.80;91.50
11426;DHT22;5769;47.998;7.788;2023-04-16T02:29:57;19.80;91.50
11426;DHT22;5769;47.998;7.788;2023-04-16T02:32:23;19.80;91.40
11426;DHT22;5769;47.998;7.788;2023-04-16T02:34:50;19.70;91.30
11426;DHT22;5769;47.998;7.788;2023-04-16T02:37:19;19.60;91.30
11426;DHT22;5769;47.998;7.788;2023-04-16T02:39:45;19.80;91.40
11426;DHT22;5769;47.998;7.788;2023-04-16T02:42:14;19.80;91.50
11426;DHT22;5769;47.998;7.788;2023-04-16T02:44:41;19.70;91.50
11426;DHT22;5769;47.998;7.788;2023-04-16T02:47:09;19.60;91.40
11426;DHT22;5769;47.998;7.788;2023-04-16T02:49:36;19.80;91.50
11426;DHT22;5769;47.998;7.788;2023-04-16T02:52:03;19.80;91.40
11426;DHT22;5769;47.998;7.788;2023-04-16T02:54:29;19.60;91.50
11426;DHT22;5769;47.998;7.788;2023-04-16T02:56:56;19.70;91.40
11426;DHT22;5769;47.998;7.788;2023-04-16T02:59:23;19.80;91.40
11426;DHT22;5769;47.998;7.788;2023-04-16T03:01:50;19.70;91.30
11426;DHT22;5769;47.998;7.788;2023-04-16T03:04:19;19.60;91.20
11426;DHT22;5769;47.998;7.788;2023-04-16T03:06:45;19.70;91.20
11426;DHT22;5769;47.998;7.788;2023-04-16T03:09:12;19.70;91.30
11426;DHT22;5769;47.998;7.788;2023-04-16T03:11:40;19.60;91.30
11426;DHT22;5769;47.998;7.788;2023-04-16T03:14:07;19.80;91.30
11426;DHT22;5769;47.998;7.788;2023-04-16T03:16:33;19.60;91.20
11426;DHT22;5769;47.998;7.788;2023-04-16T03:19:00;19.70;91.20
11426;DHT22;5769;47.998;7.788;2023-04-16T03:21:29;19.60;91.20
11426;DHT22;5769;47.998;7.788;2023-04-16T03:23:55;19.70;91.20
11426;DHT22;5769;47.998;7.788;2023-04-16T03:26:22;19.70;91.20
11426;DHT22;5769;47.998;7.788;2023-04-16T03:28:49;19.70;91.20
11426;DHT22;5769;47.998;7.788;2023-04-16T03:31:15;19.60;91.20
11426;DHT22;5769;47.998;7.788;2023-04-16T03:33:42;19.70;91.60
11426;DHT22;5769;47.998;7.788;2023-04-16T03:36:09;19.60;91.10
11426;DHT22;5769;47.998;7.788;2023-04-16T03:38:38;19.70;91.20
11426;DHT22;5769;47.998;7.788;2023-04-16T03:41:05;19.70;91.30
11426;DHT22;5769;47.998;7.788;2023-04-16T03:43:32;19.50;91.20
11426;DHT22;5769;47.998;7.788;2023-04-16T03:45:59;19.70;91.20
11426;DHT22;5769;47.998;7.788;2023-04-16T03:48:25;19.70;91.20
11426;DHT22;5769;47.998;7.788;2023-04-16T03:50:52;19.70;91.10
11426;DHT22;5769;47.998;7.788;2023-04-16T03:53:19;19.60;91.10
11426;DHT22;5769;47.998;7.788;2023-04-16T03:55:48;19.60;91.10
11426;DHT22;5769;47.998;7.788;2023-04-16T03:58:15;19.60;91.10
11426;DHT22;5769;47.998;7.788;2023-04-16T04:00:42;19.60;91.00
11426;DHT22;5769;47.998;7.788;2023-04-16T04:03:09;19.70;91.10
11426;DHT22;5769;47.998;7.788;2023-04-16T04:05:37;19.60;91.10
11426;DHT22;5769;47.998;7.788;2023-04-16T04:08:04;19.60;91.20
11426;DHT22;5769;47.998;7.788;2023-04-16T04:10:31;19.70;91.30
11426;DHT22;5769;47.998;7.788;2023-04-16T04:13:00;19.60;91.30
11426;DHT22;5769;47.998;7.788;2023-04-16T04:15:30;19.70;91.40
11426;DHT22;5769;47.998;7.788;2023-04-16T04:17:57;19.60;91.40
11426;DHT22;5769;47.998;7.788;2023-04-16T04:20:24;19.60;91.40
11426;DHT22;5769;47.998;7.788;2023-04-16T04:22:51;19.70;91.50
11426;DHT22;5769;47.998;7.788;2023-04-16T04:25:18;19.70;91.40
11426;DHT22;5769;47.998;7.788;2023-04-16T04:27:45;19.70;91.50
11426;DHT22;5769;47.998;7.788;2023-04-16T04:30:13;19.70;91.50
11426;DHT22;5769;47.998;7.788;2023-04-16T04:32:40;19.70;91.50
11426;DHT22;5769;47.998;7.788;2023-04-16T04:35:07;19.70;91.40
11426;DHT22;5769;47.998;7.788;2023-04-16T04:37:34;19.70;91.40
11426;DHT22;5769;47.998;7.788;2023-04-16T04:40:00;19.60;91.30
11426;DHT22;5769;47.998;7.788;2023-04-16T04:42:28;19.70;91.40
11426;DHT22;5769;47.998;7.788;2023-04-16T04:44:54;19.60;91.30
11426;DHT22;5769;47.998;7.788;2023-04-16T04:47:22;19.50;91.30
11426;DHT22;5769;47.998;7.788;2023-04-16T04:49:49;19.70;91.40
11426;DHT22;5769;47.998;7.788;2023-04-16T04:52:16;19.70;91.40
11426;DHT22;5769;47.998;7.788;2023-04-16T04:54:42;19.60;91.40
11426;DHT22;5769;47.998;7.788;2023-04-16T04:57:09;19.70;91.40
11426;DHT22;5769;47.998;7.788;2023-04-16T04:59:36;19.50;91.40
11426;DHT22;5769;47.998;7.788;2023-04-16T05:02:02;19.70;91.50
11426;DHT22;5769;47.998;7.788;2023-04-16T05:04:30;19.70;91.50
11426;DHT22;5769;47.998;7.788;2023-04-16T05:06:57;19.60;91.40
11426;DHT22;5769;47.998;7.788;2023-04-16T05:09:24;19.60;91.40
11426;DHT22;5769;47.998;7.788;2023-04-16T05:11:51;19.60;91.50
11426;DHT22;5769;47.998;7.788;2023-04-16T05:14:18;19.60;91.50
11426;DHT22;5769;47.998;7.788;2023-04-16T05:16:44;19.60;91.50
11426;DHT22;5769;47.998;7.788;2023-04-16T05:19:11;19.70;91.50
11426;DHT22;5769;47.998;7.788;2023-04-16T05:21:39;19.50;91.40
11426;DHT22;5769;47.998;7.788;2023-04-16T05:24:06;19.60;91.50
11426;DHT22;5769;47.998;7.788;2023-04-16T05:26:33;19.60;91.40
11426;DHT22;5769;47.998;7.788;2023-04-16T05:28:59;19.60;91.40
11426;DHT22;5769;47.998;7.788;2023-04-16T05:31:26;19.60;91.50
11426;DHT22;5769;47.998;7.788;2023-04-16T05:33:53;19.60;91.50
11426;DHT22;5769;47.998;7.788;2023-04-16T05:36:20;19.60;91.50
11426;DHT22;5769;47.998;7.788;2023-04-16T05:38:48;19.50;91.40
11426;DHT22;5769;47.998;7.788;2023-04-16T05:41:15;19.60;91.40
11426;DHT22;5769;47.998;7.788;2023-04-16T05:43:41;19.60;91.50
11426;DHT22;5769;47.998;7.788;2023-04-16T05:46:08;19.50;91.40
11426;DHT22;5769;47.998;7.788;2023-04-16T05:48:35;19.60;91.50
11426;DHT22;5769;47.998;7.788;2023-04-16T05:51:02;19.60;91.50
11426;DHT22;5769;47.998;7.788;2023-04-16T05:53:28;19.60;91.80
11426;DHT22;5769;47.998;7.788;2023-04-16T05:55:56;19.50;91.40
11426;DHT22;5769;47.998;7.788;2023-04-16T05:58:23;19.50;91.40
11426;DHT22;5769;47.998;7.788;2023-04-16T06:00:50;19.50;91.50
11426;DHT22;5769;47.998;7.788;2023-04-16T06:03:17;19.50;91.40
11426;DHT22;5769;47.998;7.788;2023-04-16T06:05:44;19.60;91.50
11426;DHT22;5769;47.998;7.788;2023-04-16T06:08:10;19.50;91.30
11426;DHT22;5769;47.998;7.788;2023-04-16T06:10:39;19.60;91.40
11426;DHT22;5769;47.998;7.788;2023-04-16T06:13:07;19.50;91.50
11426;DHT22;5769;47.998;7.788;2023-04-16T06:15:34;19.50;91.40
11426;DHT22;5769;47.998;7.788;2023-04-16T06:18:01;19.60;91.50
11426;DHT22;5769;47.998;7.788;2023-04-16T06:20:28;19.50;91.40
11426;DHT22;5769;47.998;7.788;2023-04-16T06:22:55;19.60;91.50
11426;DHT22;5769;47.998;7.788;2023-04-16T06:25:22;19.60;91.40
11426;DHT22;5769;47.998;7.788;2023-04-16T06:27:49;19.50;91.40
11426;DHT22;5769;47.998;7.788;2023-04-16T06:30:17;19.60;91.40
11426;DHT22;5769;47.998;7.788;2023-04-16T06:32:44;19.50;91.30
11426;DHT22;5769;47.998;7.788;2023-04-16T06:35:11;19.60;91.40
11426;DHT22;5769;47.998;7.788;2023-04-16T06:37:38;19.50;91.30
11426;DHT22;5769;47.998;7.788;2023-04-16T06:40:06;19.50;91.40
11426;DHT22;5769;47.998;7.788;2023-04-16T06:42:33;19.60;91.40
11426;DHT22;5769;47.998;7.788;2023-04-16T06:45:00;19.50;91.40
11426;DHT22;5769;47.998;7.788;2023-04-16T06:47:28;19.60;91.40
11426;DHT22;5769;47.998;7.788;2023-04-16T06:49:55;19.60;91.50
11426;DHT22;5769;47.998;7.788;2023-04-16T06:52:22;19.40;91.60
11426;DHT22;5769;47.998;7.788;2023-04-16T06:54:49;19.50;91.60
11426;DHT22;5769;47.998;7.788;2023-04-16T06:57:15;19.50;91.60
11426;DHT22;5769;47.998;7.788;2023-04-16T06:59:42;19.50;91.50
11426;DHT22;5769;47.998;7.788;2023-04-16T07:02:09;19.40;91.50
11426;DHT22;5769;47.998;7.788;2023-04-16T07:04:37;19.50;91.60
11426;DHT22;5769;47.998;7.788;2023-04-16T07:07:04;19.40;91.60
11426;DHT22;5769;47.998;7.788;2023-04-16T07:09:31;19.40;91.60
11426;DHT22;5769;47.998;7.788;2023-04-16T07:11:57;19.40;91.70
11426;DHT22;5769;47.998;7.788;2023-04-16T07:14:24;19.40;91.70
11426;DHT22;5769;47.998;7.788;2023-04-16T07:16:56;19.40;91.70
11426;DHT22;5769;47.998;7.788;2023-04-16T07:19:25;19.40;91.60
11426;DHT22;5769;47.998;7.788;2023-04-16T07:22:08;19.50;91.60
11426;DHT22;5769;47.998;7.788;2023-04-16T07:24:39;19.50;91.50
11426;DHT22;5769;47.998;7.788;2023-04-16T07:27:13;19.40;91.50
11426;DHT22;5769;47.998;7.788;2023-04-16T07:29:50;19.40;91.50
11426;DHT22;5769;47.998;7.788;2023-04-16T07:32:25;19.40;91.50
11426;DHT22;5769;47.998;7.788;2023-04-16T07:35:06;19.50;91.40
11426;DHT22;5769;47.998;7.788;2023-04-16T07:37:39;19.40;91.30
11426;DHT22;5769;47.998;7.788;2023-04-16T07:40:14;19.50;91.30
11426;DHT22;5769;47.998;7.788;2023-04-16T07:42:49;19.60;91.40
11426;DHT22;5769;47.998;7.788;2023-04-16T07:45:26;19.40;91.40
11426;DHT22;5769;47.998;7.788;2023-04-16T07:47:56;19.60;91.40
11426;DHT22;5769;47.998;7.788;2023-04-16T07:50:26;19.50;91.30
11426;DHT22;5769;47.998;7.788;2023-04-16T07:53:01;19.40;91.30
11426;DHT22;5769;47.998;7.788;2023-04-16T07:55:34;19.60;91.40
11426;DHT22;5769;47.998;7.788;2023-04-16T07:58:03;19.40;91.30
11426;DHT22;5769;47.998;7.788;2023-04-16T08:00:43;19.50;91.30
11426;DHT22;5769;47.998;7.788;2023-04-16T08:03:13;19.40;91.30
11426;DHT22;5769;47.998;7.788;2023-04-16T08:06:04;19.40;91.30
11426;DHT22;5769;47.998;7.788;2023-04-16T08:08:44;19.50;91.30
11426;DHT22;5769;47.998;7.788;2023-04-16T08:11:13;19.60;91.30
11426;DHT22;5769;47.998;7.788;2023-04-16T08:13:54;19.40;91.30
11426;DHT22;5769;47.998;7.788;2023-04-16T08:16:28;19.40;91.40
11426;DHT22;5769;47.998;7.788;2023-04-16T08:19:12;19.50;91.40
11426;DHT22;5769;47.998;7.788;2023-04-16T08:22:01;19.40;91.40
11426;DHT22;5769;47.998;7.788;2023-04-16T08:25:01;19.50;91.40
11426;DHT22;5769;47.998;7.788;2023-04-16T08:27:42;19.50;91.40
11426;DHT22;5769;47.998;7.788;2023-04-16T08:30:20;19.60;91.60
11426;DHT22;5769;47.998;7.788;2023-04-16T08:32:56;19.50;91.30
11426;DHT22;5769;47.998;7.788;2023-04-16T08:35:27;19.40;91.30
11426;DHT22;5769;47.998;7.788;2023-04-16T08:37:58;19.40;91.40
11426;DHT22;5769;47.998;7.788;2023-04-16T08:40:43;19.50;91.30
11426;DHT22;5769;47.998;7.788;2023-04-16T08:43:19;19.40;91.30
11426;DHT22;5769;47.998;7.788;2023-04-16T08:45:52;19.50;91.30
11426;DHT22;5769;47.998;7.788;2023-04-16T08:48:26;19.50;91.20
11426;DHT22;5769;47.998;7.788;2023-04-16T08:51:12;19.50;91.20
11426;DHT22;5769;47.998;7.788;2023-04-16T08:53:48;19.40;91.20
11426;DHT22;5769;47.998;7.788;2023-04-16T08:56:26;19.50;91.30
11426;DHT22;5769;47.998;7.788;2023-04-16T08:59:04;19.50;91.20
11426;DHT22;5769;47.998;7.788;2023-04-16T09:01:50;19.60;91.30
11426;DHT22;5769;47.998;7.788;2023-04-16T09:04:35;19.50;91.30
11426;DHT22;5769;47.998;7.788;2023-04-16T09:07:13;19.50;91.30
11426;DHT22;5769;47.998;7.788;2023-04-16T09:09:44;19.60;91.30
11426;DHT22;5769;47.998;7.788;2023-04-16T09:12:18;19.50;91.30
11426;DHT22;5769;47.998;7.788;2023-04-16T09:14:49;19.50;91.40
11426;DHT22;5769;47.998;7.788;2023-04-16T09:17:44;19.50;91.40
11426;DHT22;5769;47.998;7.788;2023-04-16T09:20:24;19.40;91.40
11426;DHT22;5769;47.998;7.788;2023-04-16T09:22:59;19.50;91.50
11426;DHT22;5769;47.998;7.788;2023-04-16T09:25:52;19.40;91.40
11426;DHT22;5769;47.998;7.788;2023-04-16T09:28:48;19.40;91.40
11426;DHT22;5769;47.998;7.788;2023-04-16T09:31:21;19.50;91.40
11426;DHT22;5769;47.998;7.788;2023-04-16T09:37:20;19.40;91.30
11426;DHT22;5769;47.998;7.788;2023-04-16T09:40:11;19.50;91.30
11426;DHT22;5769;47.998;7.788;2023-04-16T09:42:43;19.40;91.60
11426;DHT22;5769;47.998;7.788;2023-04-16T09:45:22;19.40;91.30
11426;DHT22;5769;47.998;7.788;2023-04-16T09:48:02;19.40;91.40
11426;DHT22;5769;47.998;7.788;2023-04-16T09:50:37;19.40;91.40
11426;DHT22;5769;47.998;7.788;2023-04-16T09:53:20;19.50;91.30
11426;DHT22;5769;47.998;7.788;2023-04-16T09:56:07;19.50;91.30
11426;DHT22;5769;47.998;7.788;2023-04-16T09:58:47;19.50;91.40
11426;DHT22;5769;47.998;7.788;2023-04-16T10:01:36;19.50;91.50
11426;DHT22;5769;47.998;7.788;2023-04-16T10:04:09;19.40;91.50
11426;DHT22;5769;47.998;7.788;2023-04-16T10:07:04;19.50;91.60
11426;DHT22;5769;47.998;7.788;2023-04-16T10:09:45;19.40;91.60
11426;DHT22;5769;47.998;7.788;2023-04-16T10:12:16;19.40;91.60
11426;DHT22;5769;47.998;7.788;2023-04-16T10:14:49;19.40;91.60
11426;DHT22;5769;47.998;7.788;2023-04-16T10:17:35;19.40;91.50
11426;DHT22;5769;47.998;7.788;2023-04-16T10:20:14;19.50;91.60
11426;DHT22;5769;47.998;7.788;2023-04-16T10:22:52;19.50;91.60
11426;DHT22;5769;47.998;7.788;2023-04-16T10:25:45;19.50;91.60
11426;DHT22;5769;47.998;7.788;2023-04-16T10:28:25;19.50;91.70
11426;DHT22;5769;47.998;7.788;2023-04-16T10:31:12;19.40;91.70
11426;DHT22;5769;47.998;7.788;2023-04-16T10:33:50;19.50;91.70
11426;DHT22;5769;47.998;7.788;2023-04-16T10:36:29;19.50;91.80
11426;DHT22;5769;47.998;7.788;2023-04-16T10:38:57;19.40;91.70
11426;DHT22;5769;47.998;7.788;2023-04-16T10:41:25;19.50;91.70
11426;DHT22;5769;47.998;7.788;2023-04-16T10:43:52;19.40;91.70
11426;DHT22;5769;47.998;7.788;2023-04-16T10:46:31;19.30;91.70
11426;DHT22;5769;47.998;7.788;2023-04-16T10:49:01;19.40;91.70
11426;DHT22;5769;47.998;7.788;2023-04-16T10:51:29;19.40;91.70
11426;DHT22;5769;47.998;7.788;2023-04-16T10:54:02;19.40;91.60
11426;DHT22;5769;47.998;7.788;2023-04-16T10:56:32;19.30;91.50
11426;DHT22;5769;47.998;7.788;2023-04-16T10:58:58;19.30;91.60
11426;DHT22;5769;47.998;7.788;2023-04-16T11:01:29;19.40;91.70
11426;DHT22;5769;47.998;7.788;2023-04-16T11:03:58;19.30;91.60
11426;DHT22;5769;47.998;7.788;2023-04-16T11:06:27;19.40;91.70
11426;DHT22;5769;47.998;7.788;2023-04-16T11:08:56;19.30;91.70
11426;DHT22;5769;47.998;7.788;2023-04-16T11:11:23;19.40;91.70
11426;DHT22;5769;47.998;7.788;2023-04-16T11:13:54;19.30;91.70
11426;DHT22;5769;47.998;7.788;2023-04-16T11:16:21;19.30;92.00
11426;DHT22;5769;47.998;7.788;2023-04-16T11:18:47;19.30;92.00
11426;DHT22;5769;47.998;7.788;2023-04-16T11:21:14;19.30;92.10
11426;DHT22;5769;47.998;7.788;2023-04-16T11:23:46;19.40;92.10
11426;DHT22;5769;47.998;7.788;2023-04-16T11:26:23;19.30;92.10
11426;DHT22;5769;47.998;7.788;2023-04-16T11:28:51;19.40;92.20
11426;DHT22;5769;47.998;7.788;2023-04-16T11:31:17;19.40;92.10
11426;DHT22;5769;47.998;7.788;2023-04-16T11:33:44;19.40;92.10
11426;DHT22;5769;47.998;7.788;2023-04-16T11:36:11;19.40;92.10
11426;DHT22;5769;47.998;7.788;2023-04-16T11:38:38;19.30;92.10
11426;DHT22;5769;47.998;7.788;2023-04-16T11:41:08;19.40;92.20
11426;DHT22;5769;47.998;7.788;2023-04-16T11:43:36;19.30;92.20
11426;DHT22;5769;47.998;7.788;2023-04-16T11:46:05;19.40;92.20
11426;DHT22;5769;47.998;7.788;2023-04-16T11:48:45;19.50;92.10
11426;DHT22;5769;47.998;7.788;2023-04-16T11:51:12;19.30;92.20
11426;DHT22;5769;47.998;7.788;2023-04-16T11:58:42;19.40;92.00
11426;DHT22;5769;47.998;7.788;2023-04-16T13:15:35;19.50;92.20
11426;DHT22;5769;47.998;7.788;2023-04-16T13:22:59;19.30;92.00
11426;DHT22;5769;47.998;7.788;2023-04-16T13:27:54;19.30;92.00
11426;DHT22;5769;47.998;7.788;2023-04-16T13:30:20;19.30;92.30
11426;DHT22;5769;47.998;7.788;2023-04-16T13:32:47;19.30;92.20
11426;DHT22;5769;47.998;7.788;2023-04-16T13:40:09;19.30;92.10
11426;DHT22;5769;47.998;7.788;2023-04-16T13:42:36;19.30;92.10
11426;DHT22;5769;47.998;7.788;2023-04-16T13:45:03;19.40;92.00
11426;DHT22;5769;47.998;7.788;2023-04-16T13:47:30;19.30;92.00
11426;DHT22;5769;47.998;7.788;2023-04-16T13:49:56;19.30;92.00
11426;DHT22;5769;47.998;7.788;2023-04-16T13:52:23;19.30;91.90
11426;DHT22;5769;47.998;7.788;2023-04-16T13:54:51;19.30;91.80
11426;DHT22;5769;47.998;7.788;2023-04-16T13:57:18;19.40;91.90
11426;DHT22;5769;47.998;7.788;2023-04-16T13:59:45;19.40;92.00
11426;DHT22;5769;47.998;7.788;2023-04-16T14:02:12;19.30;92.00
11426;DHT22;5769;47.998;7.788;2023-04-16T14:04:38;19.30;92.00
11426;DHT22;5769;47.998;7.788;2023-04-16T14:07:05;19.30;92.10
11426;DHT22;5769;47.998;7.788;2023-04-16T14:09:32;19.40;92.20
11426;DHT22;5769;47.998;7.788;2023-04-16T14:12:00;19.40;92.10
11426;DHT22;5769;47.998;7.788;2023-04-16T14:14:27;19.30;92.10
11426;DHT22;5769;47.998;7.788;2023-04-16T14:16:54;19.20;92.10
11426;DHT22;5769;47.998;7.788;2023-04-16T14:19:20;19.40;92.00
11426;DHT22;5769;47.998;7.788;2023-04-16T14:21:47;19.40;92.00
11426;DHT22;5769;47.998;7.788;2023-04-16T14:24:14;19.40;92.00
11426;DHT22;5769;47.998;7.788;2023-04-16T14:26:42;19.40;92.10
11426;DHT22;5769;47.998;7.788;2023-04-16T14:29:10;19.30;92.10
11426;DHT22;5769;47.998;7.788;2023-04-16T14:31:36;19.40;92.10
11426;DHT22;5769;47.998;7.788;2023-04-16T14:34:03;19.30;92.10
11426;DHT22;5769;47.998;7.788;2023-04-16T14:36:30;19.20;92.00
11426;DHT22;5769;47.998;7.788;2023-04-16T14:38:57;19.20;92.20
11426;DHT22;5769;47.998;7.788;2023-04-16T14:41:24;19.40;92.30
11426;DHT22;5769;47.998;7.788;2023-04-16T14:43:51;19.20;92.10
11426;DHT22;5769;47.998;7.788;2023-04-16T14:46:19;19.40;92.20
11426;DHT22;5769;47.998;7.788;2023-04-16T14:48:46;19.30;92.10
11426;DHT22;5769;47.998;7.788;2023-04-16T14:51:12;19.40;92.00
11426;DHT22;5769;47.998;7.788;2023-04-16T14:53:39;19.40;92.10
11426;DHT22;5769;47.998;7.788;2023-04-16T14:56:06;19.30;92.00
11426;DHT22;5769;47.998;7.788;2023-04-16T14:58:32;19.30;92.00
11426;DHT22;5769;47.998;7.788;2023-04-16T15:01:00;19.20;91.90
11426;DHT22;5769;47.998;7.788;2023-04-16T15:03:30;19.30;91.90
11426;DHT22;5769;47.998;7.788;2023-04-16T15:05:57;19.30;91.90
11426;DHT22;5769;47.998;7.788;2023-04-16T15:08:23;19.40;91.90
11426;DHT22;5769;47.998;7.788;2023-04-16T15:10:50;19.20;91.90
11426;DHT22;5769;47.998;7.788;2023-04-16T15:13:17;19.30;92.00
11426;DHT22;5769;47.998;7.788;2023-04-16T15:15:44;19.30;92.00
11426;DHT22;5769;47.998;7.788;2023-04-16T15:18:11;19.30;92.00
11426;DHT22;5769;47.998;7.788;2023-04-16T15:20:39;19.30;92.00
11426;DHT22;5769;47.998;7.788;2023-04-16T15:23:05;19.30;92.10
11426;DHT22;5769;47.998;7.788;2023-04-16T15:25:32;19.30;92.00
11426;DHT22;5769;47.998;7.788;2023-04-16T15:27:59;19.40;92.00
11426;DHT22;5769;47.998;7.788;2023-04-16T15:30:27;19.40;92.00
11426;DHT22;5769;47.998;7.788;2023-04-16T15:32:53;19.30;92.00
11426;DHT22;5769;47.998;7.788;2023-04-16T15:35:20;19.30;91.90
11426;DHT22;5769;47.998;7.788;2023-04-16T15:37:48;19.30;92.00
11426;DHT22;5769;47.998;7.788;2023-04-16T15:40:17;19.30;92.10
11426;DHT22;5769;47.998;7.788;2023-04-16T15:42:44;19.20;92.10
11426;DHT22;5769;47.998;7.788;2023-04-16T15:45:11;19.30;92.10
11426;DHT22;5769;47.998;7.788;2023-04-16T15:47:38;19.20;92.10
11426;DHT22;5769;47.998;7.788;2023-04-16T15:50:05;19.30;92.10
11426;DHT22;5769;47.998;7.788;2023-04-16T15:52:32;19.40;92.00
11426;DHT22;5769;47.998;7.788;2023-04-16T15:55:02;19.40;92.00
11426;DHT22;5769;47.998;7.788;2023-04-16T15:57:28;19.30;92.00
11426;DHT22;5769;47.998;7.788;2023-04-16T15:59:55;19.40;92.40
11426;DHT22;5769;47.998;7.788;2023-04-16T16:02:23;19.20;92.10
11426;DHT22;5769;47.998;7.788;2023-04-16T16:04:50;19.20;92.00
11426;DHT22;5769;47.998;7.788;2023-04-16T16:07:17;19.30;92.10
11426;DHT22;5769;47.998;7.788;2023-04-16T16:09:44;19.30;92.20
11426;DHT22;5769;47.998;7.788;2023-04-16T16:12:13;19.30;92.20
11426;DHT22;5769;47.998;7.788;2023-04-16T16:17:08;19.30;92.10
11426;DHT22;5769;47.998;7.788;2023-04-16T16:22:03;19.20;92.00
11426;DHT22;5769;47.998;7.788;2023-04-16T16:24:29;19.30;92.30
11426;DHT22;5769;47.998;7.788;2023-04-16T16:26:56;19.20;92.30
11426;DHT22;5769;47.998;7.788;2023-04-16T16:29:24;19.20;92.30
11426;DHT22;5769;47.998;7.788;2023-04-16T16:36:45;19.30;92.10
11426;DHT22;5769;47.998;7.788;2023-04-16T16:49:04;19.30;92.00
11426;DHT22;5769;47.998;7.788;2023-04-16T16:56:27;19.30;92.10
11426;DHT22;5769;47.998;7.788;2023-04-16T17:06:16;19.30;92.10
11426;DHT22;5769;47.998;7.788;2023-04-16T17:08:44;19.30;92.40
11426;DHT22;5769;47.998;7.788;2023-04-16T17:25:57;19.20;92.10
11426;DHT22;5769;47.998;7.788;2023-04-16T17:28:23;19.20;92.40
11426;DHT22;5769;47.998;7.788;2023-04-16T17:33:18;19.30;92.10
11426;DHT22;5769;47.998;7.788;2023-04-16T17:35:45;19.20;92.40
11426;DHT22;5769;47.998;7.788;2023-04-16T17:40:40;19.20;92.00
11426;DHT22;5769;47.998;7.788;2023-04-16T17:43:07;19.20;92.30
11426;DHT22;5769;47.998;7.788;2023-04-16T17:45:33;19.30;92.20
11426;DHT22;5769;47.998;7.788;2023-04-16T17:48:00;19.30;92.20
11426;DHT22;5769;47.998;7.788;2023-04-16T17:50:27;19.30;92.20
11426;DHT22;5769;47.998;7.788;2023-04-16T17:52:53;19.30;92.30
11426;DHT22;5769;47.998;7.788;2023-04-16T17:55:24;19.20;92.30
11426;DHT22;5769;47.998;7.788;2023-04-16T17:57:51;19.20;92.40
11426;DHT22;5769;47.998;7.788;2023-04-16T18:00:18;19.20;92.30
11426;DHT22;5769;47.998;7.788;2023-04-16T18:02:45;19.30;92.40
11426;DHT22;5769;47.998;7.788;2023-04-16T18:10:08;19.40;92.10
11426;DHT22;5769;47.998;7.788;2023-04-16T18:22:25;19.20;92.00
11426;DHT22;5769;47.998;7.788;2023-04-16T18:27:20;19.30;92.10
11426;DHT22;5769;47.998;7.788;2023-04-16T18:29:48;19.20;92.40
11426;DHT22;5769;47.998;7.788;2023-04-16T18:34:42;19.20;92.00
11426;DHT22;5769;47.998;7.788;2023-04-16T18:59:14;19.20;92.10
11426;DHT22;5769;47.998;7.788;2023-04-16T20:44:58;19.30;92.30
11426;DHT22;5769;47.998;7.788;2023-04-16T21:19:21;19.20;92.10
11426;DHT22;5769;47.998;7.788;2023-04-16T21:31:37;19.20;92.10